Map

Track Data

SID SEASON NUMBER BASIN SUBBASIN NAME ISO_TIME NATURE LAT LON WMO_WIND WMO_PRES WMO_AGENCY TRACK_TYPE DIST2LAND LANDFALL IFLAG USA_AGENCY USA_ATCF_ID USA_LAT USA_LON USA_RECORD USA_STATUS USA_WIND USA_PRES USA_SSHS USA_R34_NE USA_R34_SE USA_R34_SW USA_R34_NW USA_R50_NE USA_R50_SE USA_R50_SW USA_R50_NW USA_R64_NE USA_R64_SE USA_R64_SW USA_R64_NW USA_POCI USA_ROCI USA_RMW USA_EYE TOKYO_LAT TOKYO_LON TOKYO_GRADE TOKYO_WIND TOKYO_PRES TOKYO_R50_DIR TOKYO_R50_LONG TOKYO_R50_SHORT TOKYO_R30_DIR TOKYO_R30_LONG TOKYO_R30_SHORT TOKYO_LAND CMA_LAT CMA_LON CMA_CAT CMA_WIND CMA_PRES HKO_LAT HKO_LON HKO_CAT HKO_WIND HKO_PRES NEWDELHI_LAT NEWDELHI_LON NEWDELHI_GRADE NEWDELHI_WIND NEWDELHI_PRES NEWDELHI_CI NEWDELHI_DP NEWDELHI_POCI REUNION_LAT REUNION_LON REUNION_TYPE REUNION_WIND REUNION_PRES REUNION_TNUM REUNION_CI REUNION_RMW REUNION_R34_NE REUNION_R34_SE REUNION_R34_SW REUNION_R34_NW REUNION_R50_NE REUNION_R50_SE REUNION_R50_SW REUNION_R50_NW REUNION_R64_NE REUNION_R64_SE REUNION_R64_SW REUNION_R64_NW BOM_LAT BOM_LON BOM_TYPE BOM_WIND BOM_PRES BOM_TNUM BOM_CI BOM_RMW BOM_R34_NE BOM_R34_SE BOM_R34_SW BOM_R34_NW BOM_R50_NE BOM_R50_SE BOM_R50_SW BOM_R50_NW BOM_R64_NE BOM_R64_SE BOM_R64_SW BOM_R64_NW BOM_ROCI BOM_POCI BOM_EYE BOM_POS_METHOD BOM_PRES_METHOD NADI_LAT NADI_LON NADI_CAT NADI_WIND NADI_PRES WELLINGTON_LAT WELLINGTON_LON WELLINGTON_WIND WELLINGTON_PRES DS824_LAT DS824_LON DS824_STAGE DS824_WIND DS824_PRES TD9636_LAT TD9636_LON TD9636_STAGE TD9636_WIND TD9636_PRES TD9635_LAT TD9635_LON TD9635_WIND TD9635_PRES TD9635_ROCI NEUMANN_LAT NEUMANN_LON NEUMANN_CLASS NEUMANN_WIND NEUMANN_PRES MLC_LAT MLC_LON MLC_CLASS MLC_WIND MLC_PRES USA_GUST BOM_GUST BOM_GUST_PER REUNION_GUST REUNION_GUST_PER USA_SEAHGT USA_SEARAD_NE USA_SEARAD_SE USA_SEARAD_SW USA_SEARAD_NW STORM_SPEED STORM_DIR
1916363S17152 1917 74 SP EA NOT_NAMED 1916-12-27 23:00:00 NR -16.7000 152.100 main 532 518 __________O___ -1 -16.7000 152.100 7 14 256
1916363S17152 1917 74 SP EA NOT_NAMED 1916-12-28 00:00:00 NR -16.7577 151.867 main 509 456 __________P___ -1 -16.7577 151.867 7 14 255
1916363S17152 1917 74 SP EA NOT_NAMED 1916-12-28 03:00:00 NR -16.9335 151.171 main 456 398 __________P___ -1 -16.9335 151.171 7 14 255
1916363S17152 1917 74 SP EA NOT_NAMED 1916-12-28 06:00:00 NR -17.1227 150.487 main 398 345 __________P___ -1 -17.1227 150.487 7 14 253
1916363S17152 1917 74 SP EA NOT_NAMED 1916-12-28 09:00:00 NR -17.3371 149.825 main 340 299 __________P___ -1 -17.3371 149.825 7 13 250
1916363S17152 1917 74 SP EA NOT_NAMED 1916-12-28 11:00:00 NR -17.5000 149.400 main 299 276 __________O___ -1 -17.5000 149.400 7 13 247
1916363S17152 1917 74 SP EA NOT_NAMED 1916-12-28 12:00:00 NR -17.5887 149.193 main 276 210 __________P___ -1 -17.5887 149.193 7 13 244
1916363S17152 1917 74 SP EA NOT_NAMED 1916-12-28 15:00:00 NR -17.8816 148.592 main 210 148 __________P___ -1 -17.8816 148.592 7 13 241
1916363S17152 1917 74 SP EA NOT_NAMED 1916-12-28 18:00:00 NR -18.2078 148.003 main 148 98 __________P___ -1 -18.2078 148.003 7 13 239
1916363S17152 1917 74 SP EA NOT_NAMED 1916-12-28 21:00:00 NR -18.5579 147.409 main 88 49 __________P___ -1 -18.5579 147.409 7 13 238
1916363S17152 1917 74 SP EA NOT_NAMED 1916-12-28 23:00:00 NR -18.8000 147.000 main 49 33 __________O___ -1 -18.8000 147.000 7 14 239
1916363S17152 1917 74 SP EA NOT_NAMED 1916-12-29 00:00:00 NR -18.9055 146.795 main 33 0 __________P___ -1 -18.9055 146.795 7 13 241
1916363S17152 1917 74 SP EA NOT_NAMED 1916-12-29 03:00:00 NR -19.2282 146.169 main 0 0 __________P___ -1 -19.2282 146.169 7 14 241
1916363S17152 1917 74 SP EA NOT_NAMED 1916-12-29 06:00:00 NR -19.5800 145.512 main 0 0 __________P___ -1 -19.5800 145.512 7 15 239
1916363S17152 1917 74 SP EA NOT_NAMED 1916-12-29 09:00:00 NR -19.9863 144.806 main 0 0 __________P___ -1 -19.9863 144.806 7 16 238
1916363S17152 1917 74 SP EA NOT_NAMED 1916-12-29 11:00:00 NR -20.3000 144.300 main 0 0 __________O___ -1 -20.3000 144.300 7 17 236
1916363S17152 1917 74 SP EA NOT_NAMED 1916-12-29 12:00:00 NR -20.4721 144.034 main 0 0 __________P___ -1 -20.4721 144.034 7 19 234
1916363S17152 1917 74 SP EA NOT_NAMED 1916-12-29 15:00:00 NR -21.0433 143.189 main 0 0 __________P___ -1 -21.0433 143.189 7 20 234
1916363S17152 1917 74 SP EA NOT_NAMED 1916-12-29 18:00:00 NR -21.6767 142.286 main 0 0 __________P___ -1 -21.6767 142.286 7 22 233
1916363S17152 1917 74 SP EA NOT_NAMED 1916-12-29 21:00:00 NR -22.3462 141.342 main 0 0 __________P___ -1 -22.3462 141.342 7 22 233
1916363S17152 1917 74 SP EA NOT_NAMED 1916-12-29 23:00:00 NR -22.8000 140.700 main 0 __________O___ -1 -22.8000 140.700 7 22 233

Digital Typhoon Data and Search

About IBTrACS Database

This database is a web-friendly format of International Best Track Archive for Climate Stewardship (IBTrACS), a global best track data archive curated by NOAA dating back to 1842.

Updated: 2021-10-21